Stettler, Canada
Current Conditions -  °F | °C
As of 6:00 AM on Friday 24 Oct 2014 (Local Time) from CYQF Reporting Station
Scattered Clouds Scattered Clouds  
Wind Chill: 32°   Ceiling: Unl
Heat Index: 32°   Visibility: 15mi
Dew Point: 27°   Wind: 2mph
Humidity: 80%   Direction: 260°W
Pressure: 29.78"   Gusts: NA
Location:  52.33°N, 112.68°W
Report Text: CYQF 241200Z 26002KT 15SM SCT096 M00/M03 A2978 RMK AC4 SLP113
Loading
Personal Weather Stations






























Interactive Weather Map
Tropical Storm Tracking
New forecast layout! Learn more

10-Day Weather Forecast

Advertisements
Track Severe Weather on mobile